logo
Search for airport 
image banner adimage banner adimage banner ad
image banner ad

EYVI - Vilnius/International

Located in Vilnius, Lithuania

ICAO - EYVI, IATA - VNO

Data provided by Airmate  

General information

Coordinates: N54°38'13" E25°17'16"
Elevation is 649 feet MSL.
Magnetic variation is 8° East
View others Airports in Vilnius County

Operational data

Special qualification required
Current time UTC:
Current local time:
Weather
METAR: EYVI 151020Z 06005KT 030V130 9999 SCT044 19/09 Q1015 NOSIG
View NOTAMs / SUP AIP / TFR affecting this airport [VIEW]
Communications frequencies: [VIEW]

Runways:

RWY identifierQFULength (ft)Width (ft)SurfaceLDA (ft)
0122°8251164CONC+ASPH8251
19202°8251164CONC+ASPH8251

Airport contact information

Address: Vilnius Lithuania

Other aviation service providers

Flight schools

Vilniaus Gedimino Technikos Universiteto Antano Gustaičio Aviacijos Institutas

Vilniaus Gedimino Technikos Universiteto Antano Gustaičio Aviacijos Institutas
avinst@vgtu.lt+370852744809

Baa Training

Baa Training

Pilotų Mokykla

Pilotų Mokykla

Vsat Prie Lr Vrm Aviacijos Rinktinė 

Vsat Prie Lr Vrm Aviacijos Rinktinė 
dvks@vsat.vrm.lt+37052719305

Helicentras

Helicentras
info@helicentras.lt+37060931899
+37060931899

Getjet

Getjet
training@getjet.aero+37067682574
+37067682574

Aviacom

Aviacom
ops@aviacom.eu+37065777710
+37065777710

Satellite view of EYVI